createdAt,value
2022-08-30T00:01:47.748Z,4.55
2022-08-30T00:04:36.053Z,5.18
2022-08-30T00:07:17.814Z,5.05
2022-08-30T00:10:07.939Z,4.93
2022-08-30T00:12:49.783Z,5.18
2022-08-30T00:15:37.959Z,5.35
2022-08-30T00:18:19.714Z,5.00
2022-08-30T00:21:08.913Z,4.70
2022-08-30T00:24:03.768Z,5.25
2022-08-30T00:26:53.910Z,4.90
2022-08-30T00:29:41.733Z,5.25
2022-08-30T00:32:30.804Z,5.32
2022-08-30T00:35:13.910Z,5.15
2022-08-30T00:38:08.825Z,5.50
2022-08-30T00:40:59.738Z,5.28
2022-08-30T00:43:50.840Z,5.70
2022-08-30T00:46:39.057Z,5.45
2022-08-30T00:49:27.827Z,5.95
2022-08-30T00:52:16.968Z,5.82
2022-08-30T00:55:08.815Z,6.18
2022-08-30T00:58:01.750Z,5.60
2022-08-30T01:00:46.860Z,5.15
2022-08-30T01:03:43.774Z,5.57
2022-08-30T01:06:32.915Z,5.60
2022-08-30T01:09:21.750Z,5.90
2022-08-30T01:12:10.998Z,5.40
2022-08-30T01:14:59.745Z,6.38
2022-08-30T01:17:51.897Z,5.65
2022-08-30T01:20:43.767Z,6.20
2022-08-30T01:23:35.956Z,6.20
2022-08-30T01:26:22.046Z,5.72
2022-08-30T01:29:14.006Z,6.47
2022-08-30T01:31:55.766Z,6.03
2022-08-30T01:34:43.997Z,6.45
2022-08-30T01:37:44.789Z,5.85
2022-08-30T01:40:35.010Z,6.32
2022-08-30T01:43:17.909Z,5.80
2022-08-30T01:46:05.932Z,6.78
2022-08-30T01:48:55.766Z,6.43
2022-08-30T01:51:43.995Z,6.60
2022-08-30T01:54:33.380Z,5.97
2022-08-30T01:57:29.908Z,7.30
2022-08-30T02:00:19.840Z,6.68
2022-08-30T02:03:08.031Z,6.82
2022-08-30T02:05:56.762Z,6.45
2022-08-30T02:08:45.952Z,6.18
2022-08-30T02:11:27.784Z,6.45
2022-08-30T02:14:17.926Z,6.35
2022-08-30T02:17:02.854Z,6.82
2022-08-30T02:19:51.903Z,6.60
2022-08-30T02:22:33.857Z,7.10
2022-08-30T02:25:28.780Z,6.97
2022-08-30T02:28:19.739Z,6.72
2022-08-30T02:31:09.926Z,7.03
2022-08-30T02:34:00.925Z,6.18
2022-08-30T02:36:55.836Z,6.80
2022-08-30T02:39:44.030Z,7.00
2022-08-30T02:42:25.806Z,6.55
2022-08-30T02:45:15.266Z,7.32
2022-08-30T02:47:59.812Z,7.18
2022-08-30T02:50:49.017Z,6.40
2022-08-30T02:53:37.889Z,7.78
2022-08-30T02:56:26.046Z,7.35
2022-08-30T02:59:14.806Z,6.78
2022-08-30T03:02:03.000Z,7.28
2022-08-30T03:04:53.793Z,7.03
2022-08-30T03:07:41.919Z,7.20
2022-08-30T03:10:36.864Z,7.28
2022-08-30T03:13:25.036Z,7.15
2022-08-30T03:16:13.839Z,7.68
2022-08-30T03:19:02.032Z,7.00
2022-08-30T03:21:45.833Z,7.15
2022-08-30T03:24:33.989Z,7.28
2022-08-30T03:27:15.794Z,7.00
2022-08-30T03:30:04.036Z,7.63
2022-08-30T03:32:45.858Z,7.35
2022-08-30T03:35:33.930Z,7.78
2022-08-30T03:38:30.817Z,7.65
2022-08-30T03:41:18.990Z,7.03
2022-08-30T03:44:07.895Z,6.80
2022-08-30T03:46:56.999Z,7.38
2022-08-30T03:49:45.807Z,7.88
2022-08-30T03:52:34.810Z,7.68
2022-08-30T03:55:17.943Z,7.68
2022-08-30T03:58:06.875Z,8.05
2022-08-30T04:00:49.112Z,7.97
2022-08-30T04:03:43.819Z,7.85
2022-08-30T04:06:33.346Z,8.18
2022-08-30T04:09:21.831Z,8.05
2022-08-30T04:12:12.035Z,7.47
2022-08-30T04:14:59.819Z,8.25
2022-08-30T04:17:48.043Z,7.65
2022-08-30T04:20:35.830Z,7.70
2022-08-30T04:23:24.074Z,8.38
2022-08-30T04:26:05.813Z,7.82
2022-08-30T04:28:56.114Z,9.27
2022-08-30T04:31:37.893Z,8.00
2022-08-30T04:34:25.962Z,8.10
2022-08-30T04:37:20.886Z,8.80
2022-08-30T04:40:09.100Z,8.45
2022-08-30T04:43:00.851Z,8.60
2022-08-30T04:45:49.766Z,9.05
2022-08-30T04:48:44.911Z,8.90
2022-08-30T04:51:33.113Z,9.20
2022-08-30T04:54:21.848Z,9.07
2022-08-30T04:57:10.108Z,9.20
2022-08-30T04:59:57.857Z,9.90
2022-08-30T05:02:48.072Z,8.75
2022-08-30T05:05:47.863Z,9.38
2022-08-30T05:08:35.984Z,9.18
2022-08-30T05:11:17.865Z,9.35
2022-08-30T05:14:06.069Z,8.88
2022-08-30T05:16:48.836Z,9.00
2022-08-30T05:19:41.076Z,9.10
2022-08-30T05:22:22.842Z,9.40
2022-08-30T05:25:14.766Z,10.32
2022-08-30T05:27:56.849Z,8.75
2022-08-30T05:30:44.968Z,8.48
2022-08-30T05:33:26.879Z,9.82
2022-08-30T05:36:24.868Z,8.85
2022-08-30T05:39:21.038Z,9.25
2022-08-30T05:42:09.030Z,9.38
2022-08-30T05:44:56.870Z,9.50
2022-08-30T05:47:47.639Z,9.52
2022-08-30T05:50:38.155Z,9.07
2022-08-30T05:53:30.086Z,8.93
2022-08-30T05:56:13.892Z,10.10
2022-08-30T05:59:03.149Z,9.90
2022-08-30T06:01:46.923Z,9.10
2022-08-30T06:04:36.694Z,11.07
2022-08-30T06:07:19.999Z,8.57
2022-08-30T06:10:14.111Z,10.75
2022-08-30T06:12:58.942Z,10.20
2022-08-30T06:15:47.186Z,10.18
2022-08-30T06:18:28.997Z,9.52
2022-08-30T06:21:23.581Z,9.27
2022-08-30T06:24:27.779Z,8.85
2022-08-30T06:27:26.100Z,9.88
2022-08-30T06:30:14.894Z,9.98
2022-08-30T06:33:03.105Z,9.98
2022-08-30T06:35:58.575Z,9.13
2022-08-30T06:38:54.876Z,9.45
2022-08-30T06:41:44.965Z,9.60
2022-08-30T06:44:37.026Z,10.02
2022-08-30T06:50:07.030Z,9.93
2022-08-30T06:52:59.923Z,10.60
2022-08-30T06:55:42.067Z,9.77
2022-08-30T06:58:36.951Z,10.48
2022-08-30T07:01:30.030Z,9.35
2022-08-30T07:04:18.943Z,9.77
2022-08-30T07:07:07.128Z,9.93
2022-08-30T07:09:54.958Z,10.35
2022-08-30T07:12:44.020Z,9.48
2022-08-30T07:15:31.997Z,10.40
2022-08-30T07:18:45.856Z,9.63
2022-08-30T07:21:29.952Z,9.98
2022-08-30T07:24:20.041Z,11.30
2022-08-30T07:27:01.948Z,9.73
2022-08-30T07:29:50.137Z,9.50
2022-08-30T07:32:45.984Z,10.10
2022-08-30T07:35:29.150Z,9.60
2022-08-30T07:38:27.915Z,10.40
2022-08-30T07:41:25.119Z,9.75
2022-08-30T07:44:13.907Z,8.45
2022-08-30T07:46:55.742Z,8.88
2022-08-30T07:49:43.916Z,8.55
2022-08-30T07:52:34.271Z,8.40
2022-08-30T07:55:23.022Z,9.00
2022-08-30T07:58:11.165Z,8.23
2022-08-30T08:00:59.986Z,7.85
2022-08-30T08:03:50.374Z,7.47
2022-08-30T08:06:34.700Z,8.20
2022-08-30T08:09:25.295Z,7.25
2022-08-30T08:12:06.997Z,7.68
2022-08-30T08:14:55.564Z,7.63
2022-08-30T08:17:43.924Z,7.47
2022-08-30T08:20:27.676Z,7.22
2022-08-30T08:23:14.939Z,6.57
2022-08-30T08:25:58.161Z,6.68
2022-08-30T08:28:53.932Z,7.13
2022-08-30T08:31:36.078Z,9.57
2022-08-30T08:34:30.018Z,7.75
2022-08-30T08:37:27.817Z,6.55
2022-08-30T08:40:27.974Z,6.80
2022-08-30T08:43:14.436Z,6.75
2022-08-30T08:46:08.968Z,6.03
2022-08-30T08:49:02.192Z,6.25
2022-08-30T08:52:05.023Z,6.30
2022-08-30T08:55:00.131Z,5.97
2022-08-30T08:57:43.983Z,6.78
2022-08-30T09:00:34.096Z,5.47
2022-08-30T09:03:21.934Z,5.28
2022-08-30T09:06:04.162Z,5.65
2022-08-30T09:08:58.930Z,5.30
2022-08-30T09:11:49.068Z,5.68
2022-08-30T09:14:44.201Z,5.47
2022-08-30T09:17:36.132Z,5.47
2022-08-30T09:20:40.038Z,5.35
2022-08-30T09:23:33.211Z,5.03
2022-08-30T09:26:16.951Z,6.00
2022-08-30T09:29:05.846Z,5.20
2022-08-30T09:32:25.272Z,5.07
2022-08-30T09:35:07.176Z,4.88
2022-08-30T09:38:10.090Z,6.32
2022-08-30T09:41:00.164Z,5.25
2022-08-30T09:43:49.042Z,5.05
2022-08-30T09:46:37.287Z,5.60
2022-08-30T09:49:42.987Z,4.78
2022-08-30T09:52:49.851Z,5.10
2022-08-30T09:56:06.960Z,4.75
2022-08-30T09:59:10.667Z,4.88
2022-08-30T10:01:55.964Z,4.63
2022-08-30T10:04:52.244Z,4.25
2022-08-30T10:07:40.982Z,4.38
2022-08-30T10:10:41.802Z,4.32
2022-08-30T10:14:04.967Z,4.72
2022-08-30T10:16:55.380Z,4.40
2022-08-30T10:19:59.055Z,4.13
2022-08-30T10:22:46.849Z,3.88
2022-08-30T10:25:40.002Z,4.47
2022-08-30T10:28:37.164Z,3.92
2022-08-30T10:31:26.051Z,4.15
2022-08-30T10:34:39.975Z,3.67
2022-08-30T10:37:47.003Z,3.50
2022-08-30T10:41:04.049Z,3.35
2022-08-30T10:44:02.148Z,3.83
2022-08-30T10:46:49.981Z,4.70
2022-08-30T10:49:47.206Z,3.83
2022-08-30T10:52:38.069Z,4.22
2022-08-30T10:55:30.143Z,3.83
2022-08-30T10:58:19.908Z,3.47
2022-08-30T11:01:15.311Z,3.75
2022-08-30T11:04:49.994Z,4.78
2022-08-30T11:07:39.414Z,4.18
2022-08-30T11:10:49.542Z,4.38
2022-08-30T11:13:43.238Z,3.80
2022-08-30T11:16:27.078Z,3.85
2022-08-30T11:19:26.051Z,4.28
2022-08-30T11:22:22.002Z,3.92
2022-08-30T11:25:19.223Z,4.20
2022-08-30T11:28:03.012Z,3.58
2022-08-30T11:31:11.309Z,4.30
2022-08-30T11:34:05.997Z,4.40
2022-08-30T11:37:23.408Z,4.25
2022-08-30T11:40:23.002Z,3.67
2022-08-30T11:44:04.230Z,4.10
2022-08-30T11:46:49.016Z,4.15
2022-08-30T11:50:11.072Z,3.45
2022-08-30T11:53:04.106Z,3.97
2022-08-30T11:56:11.128Z,3.65
2022-08-30T11:59:09.822Z,3.85
2022-08-30T12:02:11.382Z,2.97
2022-08-30T12:05:36.439Z,3.83
2022-08-30T12:08:59.992Z,3.45
2022-08-30T12:12:03.261Z,3.90
2022-08-30T12:14:58.112Z,3.72
2022-08-30T12:18:21.650Z,3.60
2022-08-30T12:21:19.074Z,3.33
2022-08-30T12:24:13.434Z,3.85
2022-08-30T12:26:56.083Z,3.25
2022-08-30T12:29:44.287Z,4.05
2022-08-30T12:32:29.076Z,3.80
2022-08-30T12:35:28.997Z,3.17
2022-08-30T12:38:30.067Z,3.33
2022-08-30T12:41:28.192Z,3.45
2022-08-30T12:44:18.036Z,3.55
2022-08-30T12:47:10.608Z,3.65
2022-08-30T12:49:59.119Z,3.30
2022-08-30T12:52:45.511Z,11.27
2022-08-30T12:55:37.109Z,3.85
2022-08-30T12:58:41.624Z,4.40
2022-08-30T13:04:26.293Z,3.67
2022-08-30T13:07:09.160Z,3.58
2022-08-30T13:10:20.261Z,4.15
2022-08-30T13:13:14.041Z,3.63
2022-08-30T13:16:03.276Z,3.65
2022-08-30T13:18:52.056Z,3.13
2022-08-30T13:21:42.289Z,3.45
2022-08-30T13:24:33.134Z,3.03
2022-08-30T13:27:23.263Z,4.18
2022-08-30T13:30:21.121Z,3.10
2022-08-30T13:33:02.947Z,3.53
2022-08-30T13:35:58.059Z,3.05
2022-08-30T13:38:53.037Z,3.35
2022-08-30T13:41:42.135Z,4.03
2022-08-30T13:44:25.553Z,4.00
2022-08-30T13:50:19.638Z,3.40
2022-08-30T13:53:10.302Z,3.25
2022-08-30T13:55:52.236Z,3.15
2022-08-30T13:58:47.040Z,2.80
2022-08-30T14:02:07.711Z,2.60
2022-08-30T14:04:46.144Z,2.90
2022-08-30T14:07:35.243Z,3.72
2022-08-30T14:10:31.826Z,3.35
2022-08-30T14:13:35.126Z,2.85
2022-08-30T14:16:30.263Z,3.08
2022-08-30T14:19:14.234Z,3.15
2022-08-30T14:22:02.134Z,3.17
2022-08-30T14:24:46.709Z,2.72
2022-08-30T14:27:35.086Z,3.05
2022-08-30T14:30:21.014Z,2.90
2022-08-30T14:33:09.212Z,2.55
2022-08-30T14:35:52.292Z,2.83
2022-08-30T14:38:48.566Z,2.47
2022-08-30T14:41:42.625Z,2.55
2022-08-30T14:44:54.824Z,3.70
2022-08-30T14:47:42.309Z,3.35
2022-08-30T14:50:30.165Z,2.47
2022-08-30T14:53:20.353Z,2.70
2022-08-30T14:56:09.134Z,2.42
2022-08-30T14:59:00.534Z,2.47
2022-08-30T15:01:42.116Z,2.67
2022-08-30T15:04:31.149Z,2.17
2022-08-30T15:07:13.834Z,3.03
2022-08-30T15:10:04.298Z,3.05
2022-08-30T15:12:46.153Z,2.72
2022-08-30T15:15:34.351Z,2.53
2022-08-30T15:18:16.343Z,2.85
2022-08-30T15:21:04.292Z,2.17
2022-08-30T15:23:54.176Z,2.42
2022-08-30T15:26:44.414Z,2.85
2022-08-30T15:29:34.136Z,2.50
2022-08-30T15:32:22.348Z,2.38
2022-08-30T15:35:11.126Z,2.58
2022-08-30T15:38:06.110Z,2.75
2022-08-30T15:41:09.136Z,2.58
2022-08-30T15:43:59.660Z,3.03
2022-08-30T15:46:43.161Z,3.10
2022-08-30T15:49:32.301Z,2.70
2022-08-30T15:52:14.103Z,2.83
2022-08-30T15:55:02.230Z,3.05
2022-08-30T15:57:44.178Z,2.35
2022-08-30T16:00:34.361Z,2.97
2022-08-30T16:03:16.311Z,2.65
2022-08-30T16:06:07.548Z,2.58
2022-08-30T16:08:56.189Z,3.00
2022-08-30T16:11:46.345Z,2.55
2022-08-30T16:14:35.114Z,2.63
2022-08-30T16:17:18.439Z,2.70
2022-08-30T16:20:06.151Z,2.30
2022-08-30T16:22:55.143Z,2.90
2022-08-30T16:25:43.288Z,2.10
2022-08-30T16:28:25.173Z,2.25
2022-08-30T16:31:14.386Z,2.28
2022-08-30T16:34:04.424Z,2.30
2022-08-30T16:36:52.337Z,2.17
2022-08-30T16:39:49.202Z,1.85
2022-08-30T16:42:38.047Z,1.95
2022-08-30T16:45:32.503Z,2.25
2022-08-30T16:48:23.312Z,2.78
2022-08-30T16:51:14.166Z,2.67
2022-08-30T16:54:03.588Z,1.98
2022-08-30T16:56:45.852Z,2.10
2022-08-30T16:59:33.307Z,2.30
2022-08-30T17:02:16.301Z,2.10
2022-08-30T17:05:04.368Z,1.98
2022-08-30T17:07:47.190Z,2.30
2022-08-30T17:10:36.413Z,2.10
2022-08-30T17:13:18.169Z,2.00
2022-08-30T17:16:06.332Z,2.00
2022-08-30T17:18:55.257Z,2.00
2022-08-30T17:21:43.408Z,2.00
2022-08-30T17:24:42.146Z,1.90
2022-08-30T17:27:31.351Z,1.90
2022-08-30T17:30:22.162Z,2.20
2022-08-30T17:33:11.661Z,1.98
2022-08-30T17:36:01.196Z,2.25
2022-08-30T17:38:56.167Z,2.20
2022-08-30T17:41:50.556Z,2.08
2022-08-30T17:44:42.009Z,2.08
2022-08-30T17:47:24.460Z,15.20
2022-08-30T17:50:14.304Z,2.72
2022-08-30T17:52:59.877Z,1.88
2022-08-30T17:55:47.404Z,2.13
2022-08-30T17:58:30.229Z,2.65
2022-08-30T18:01:24.582Z,2.60
2022-08-30T18:04:15.252Z,2.05
2022-08-30T18:07:07.437Z,2.40
2022-08-30T18:09:57.220Z,2.25
2022-08-30T18:12:39.077Z,2.00
2022-08-30T18:15:36.184Z,2.40
2022-08-30T18:18:26.662Z,1.88
2022-08-30T18:21:12.245Z,1.48
2022-08-30T18:24:03.225Z,1.60
2022-08-30T18:26:45.210Z,2.10
2022-08-30T18:29:33.455Z,1.98
2022-08-30T18:32:23.248Z,1.70
2022-08-30T18:35:14.393Z,2.33
2022-08-30T18:38:02.189Z,2.15
2022-08-30T18:40:57.240Z,2.45
2022-08-30T18:44:05.882Z,1.90
2022-08-30T18:47:00.670Z,1.70
2022-08-30T18:49:51.278Z,1.98
2022-08-30T18:52:40.434Z,2.13
2022-08-30T18:55:29.364Z,1.88
2022-08-30T18:58:17.605Z,1.60
2022-08-30T19:01:08.243Z,2.03
2022-08-30T19:04:00.417Z,2.03
2022-08-30T19:06:43.285Z,1.88
2022-08-30T19:09:31.497Z,2.13
2022-08-30T19:12:13.230Z,1.60
2022-08-30T19:15:01.452Z,2.03
2022-08-30T19:17:55.215Z,1.67
2022-08-30T19:20:44.422Z,1.90
2022-08-30T19:23:41.199Z,1.80
2022-08-30T19:26:30.519Z,1.90
2022-08-30T19:29:21.265Z,1.70
2022-08-30T19:32:10.216Z,2.17
2022-08-30T19:34:59.280Z,2.10
2022-08-30T19:37:48.391Z,2.58
2022-08-30T19:40:45.253Z,1.95
2022-08-30T19:43:27.111Z,1.60
2022-08-30T19:46:16.224Z,1.98
2022-08-30T19:49:07.023Z,1.83
2022-08-30T19:51:48.265Z,1.98
2022-08-30T19:54:37.488Z,1.95
2022-08-30T19:57:20.254Z,1.92
2022-08-30T20:00:08.998Z,2.08
2022-08-30T20:02:54.601Z,2.25
2022-08-30T20:05:43.395Z,1.83
2022-08-30T20:08:25.305Z,1.60
2022-08-30T20:11:14.748Z,1.80
2022-08-30T20:14:06.231Z,1.90
2022-08-30T20:16:54.607Z,1.80
2022-08-30T20:19:49.315Z,1.73
2022-08-30T20:22:37.479Z,1.98
2022-08-30T20:25:26.229Z,1.75
2022-08-30T20:28:14.398Z,2.20
2022-08-30T20:31:05.400Z,1.70
2022-08-30T20:33:59.681Z,1.70
2022-08-30T20:36:42.262Z,1.73
2022-08-30T20:39:38.243Z,1.77
2022-08-30T20:42:27.260Z,1.90
2022-08-30T20:45:15.266Z,2.03
2022-08-30T20:48:05.814Z,1.85
2022-08-30T20:50:54.333Z,2.15
2022-08-30T20:53:42.516Z,1.88
2022-08-30T20:56:26.311Z,2.05
2022-08-30T20:59:14.547Z,1.88
2022-08-30T21:01:58.391Z,2.40
2022-08-30T21:04:48.398Z,1.92
2022-08-30T21:07:36.244Z,1.85
2022-08-30T21:10:23.258Z,2.17
2022-08-30T21:13:11.299Z,1.77
2022-08-30T21:15:54.808Z,1.70
2022-08-30T21:18:50.285Z,1.85
2022-08-30T21:21:40.456Z,1.90
2022-08-30T21:24:28.263Z,1.70
2022-08-30T21:27:16.447Z,1.42
2022-08-30T21:30:04.311Z,1.92
2022-08-30T21:32:52.491Z,1.90
2022-08-30T21:35:57.285Z,1.88
2022-08-30T21:38:54.285Z,2.00
2022-08-30T21:41:46.280Z,1.63
2022-08-30T21:44:30.440Z,1.73
2022-08-30T21:47:23.951Z,1.95
2022-08-30T21:50:06.516Z,2.05
2022-08-30T21:52:54.459Z,1.70
2022-08-30T21:55:37.413Z,1.80
2022-08-30T21:58:25.335Z,1.58
2022-08-30T22:01:18.398Z,1.50
2022-08-30T22:04:09.366Z,2.00
2022-08-30T22:06:51.401Z,2.00
2022-08-30T22:09:40.363Z,1.80
2022-08-30T22:12:30.546Z,1.48
2022-08-30T22:15:19.286Z,1.75
2022-08-30T22:18:07.472Z,1.67
2022-08-30T22:20:55.328Z,1.77
2022-08-30T22:23:45.115Z,1.90
2022-08-30T22:26:28.273Z,1.50
2022-08-30T22:29:18.520Z,1.48
2022-08-30T22:32:00.359Z,1.70
2022-08-30T22:34:49.683Z,1.63
2022-08-30T22:37:31.324Z,1.60
2022-08-30T22:40:26.406Z,1.80
2022-08-30T22:43:14.293Z,1.45
2022-08-30T22:45:57.497Z,1.73
2022-08-30T22:48:54.308Z,1.75
2022-08-30T22:51:43.290Z,1.60
2022-08-30T22:54:31.309Z,1.63
2022-08-30T22:57:19.924Z,1.48
2022-08-30T23:00:07.322Z,1.50
2022-08-30T23:03:00.466Z,1.70
2022-08-30T23:05:50.390Z,2.10
2022-08-30T23:08:45.323Z,1.70
2022-08-30T23:11:33.636Z,1.50
2022-08-30T23:14:22.436Z,1.58
2022-08-30T23:17:10.656Z,1.58
2022-08-30T23:20:00.303Z,1.58
2022-08-30T23:22:48.232Z,2.22
2022-08-30T23:25:54.379Z,1.80
2022-08-30T23:29:00.087Z,1.98
2022-08-30T23:31:58.371Z,1.73
2022-08-30T23:35:05.348Z,1.70
2022-08-30T23:38:05.313Z,1.90
2022-08-30T23:41:17.315Z,1.60
2022-08-30T23:44:29.385Z,1.88
2022-08-30T23:47:36.123Z,1.90
2022-08-30T23:50:47.019Z,1.48
2022-08-30T23:53:53.969Z,2.05
2022-08-30T23:56:52.323Z,1.50
2022-08-30T23:59:58.257Z,1.60
